createdAt,value
2023-04-02T00:01:31.973Z,102230.00
2023-04-02T00:04:22.309Z,102232.41
2023-04-02T00:06:56.462Z,102240.56
2023-04-02T00:09:33.276Z,102242.22
2023-04-02T00:12:18.923Z,102250.69
2023-04-02T00:14:51.494Z,102259.19
2023-04-02T00:17:21.201Z,102261.97
2023-04-02T00:19:55.047Z,102262.66
2023-04-02T00:22:26.699Z,102264.22
2023-04-02T00:24:56.549Z,102263.34
2023-04-02T00:27:26.127Z,102262.78
2023-04-02T00:29:56.969Z,102265.44
2023-04-02T00:32:27.833Z,102270.09
2023-04-02T00:34:57.214Z,102261.63
2023-04-02T00:37:30.224Z,102249.28
2023-04-02T00:40:06.435Z,102253.63
2023-04-02T00:42:37.786Z,102257.47
2023-04-02T00:45:09.618Z,102275.75
2023-04-02T00:47:40.794Z,102287.94
2023-04-02T00:50:22.197Z,102291.56
2023-04-02T00:52:53.358Z,102291.56
2023-04-02T00:55:25.545Z,102295.41
2023-04-02T00:58:02.514Z,102302.84
2023-04-02T01:00:33.546Z,102299.50
2023-04-02T01:03:30.087Z,102294.09
2023-04-02T01:06:14.416Z,102291.34
2023-04-02T01:08:58.311Z,102287.41
2023-04-02T01:11:43.717Z,102286.13
2023-04-02T01:14:22.699Z,102294.84
2023-04-02T01:16:56.485Z,102305.50
2023-04-02T01:20:14.546Z,102312.69
2023-04-02T01:22:51.372Z,102301.31
2023-04-02T01:25:25.816Z,102299.53
2023-04-02T01:27:58.690Z,102297.63
2023-04-02T01:30:28.544Z,102307.03
2023-04-02T01:32:56.674Z,102303.59
2023-04-02T01:35:27.327Z,102302.06
2023-04-02T01:38:05.002Z,102303.81
2023-04-02T01:40:40.242Z,102300.34
2023-04-02T01:43:21.022Z,102311.16
2023-04-02T01:45:51.200Z,102315.59
2023-04-02T01:48:22.242Z,102302.41
2023-04-02T01:50:55.028Z,102297.72
2023-04-02T01:53:26.365Z,102304.69
2023-04-02T01:55:56.021Z,102312.44
2023-04-02T01:58:26.346Z,102311.47
2023-04-02T02:01:01.521Z,102331.56
2023-04-02T02:03:30.467Z,102345.56
2023-04-02T02:05:59.824Z,102348.81
2023-04-02T02:08:35.778Z,102341.63
2023-04-02T02:11:04.885Z,102345.19
2023-04-02T02:13:33.662Z,102349.41
2023-04-02T02:16:05.402Z,102357.88
2023-04-02T02:18:34.444Z,102369.34
2023-04-02T02:21:08.506Z,102365.78
2023-04-02T02:23:36.661Z,102364.97
2023-04-02T02:26:07.398Z,102381.59
2023-04-02T02:28:41.188Z,102380.16
2023-04-02T02:31:19.379Z,102395.81
2023-04-02T02:33:52.265Z,102403.50
2023-04-02T02:36:28.239Z,102398.22
2023-04-02T02:38:59.426Z,102396.44
2023-04-02T02:41:34.645Z,102409.59
2023-04-02T02:44:12.426Z,102406.94
2023-04-02T02:46:46.229Z,102408.84
2023-04-02T02:49:18.785Z,102418.47
2023-04-02T02:51:50.992Z,102411.16
2023-04-02T02:54:20.394Z,102415.81
2023-04-02T02:56:54.078Z,102428.88
2023-04-02T02:59:23.588Z,102423.72
2023-04-02T03:01:53.902Z,102426.34
2023-04-02T03:04:23.820Z,102424.69
2023-04-02T03:06:54.160Z,102432.44
2023-04-02T03:09:32.497Z,102437.00
2023-04-02T03:12:08.763Z,102439.50
2023-04-02T03:14:42.630Z,102441.44
2023-04-02T03:17:17.619Z,102438.94
2023-04-02T03:19:49.262Z,102439.88
2023-04-02T03:22:21.054Z,102448.75
2023-04-02T03:24:56.895Z,102464.31
2023-04-02T03:27:30.544Z,102454.75
2023-04-02T03:30:10.916Z,102455.56
2023-04-02T03:32:43.763Z,102454.84
2023-04-02T03:35:23.653Z,102461.19
2023-04-02T03:37:59.945Z,102470.91
2023-04-02T03:40:32.910Z,102475.19
2023-04-02T03:43:06.513Z,102475.28
2023-04-02T03:45:40.612Z,102477.09
2023-04-02T03:48:15.124Z,102471.72
2023-04-02T03:50:49.596Z,102472.91
2023-04-02T03:53:17.660Z,102464.88
2023-04-02T03:55:46.460Z,102465.84
2023-04-02T03:58:22.144Z,102472.78
2023-04-02T04:00:55.937Z,102481.66
2023-04-02T04:03:30.674Z,102486.91
2023-04-02T04:06:01.970Z,102474.09
2023-04-02T04:08:38.155Z,102476.13
2023-04-02T04:11:14.550Z,102474.47
2023-04-02T04:13:48.210Z,102473.84
2023-04-02T04:16:20.906Z,102471.34
2023-04-02T04:19:03.304Z,102474.00
2023-04-02T04:21:37.435Z,102470.53
2023-04-02T04:24:08.429Z,102473.16
2023-04-02T04:26:49.716Z,102472.06
2023-04-02T04:29:34.485Z,102468.50
2023-04-02T04:32:18.234Z,102471.00
2023-04-02T04:34:53.406Z,102470.25
2023-04-02T04:37:29.289Z,102472.31
2023-04-02T04:40:02.015Z,102478.28
2023-04-02T04:42:34.837Z,102481.66
2023-04-02T04:45:11.116Z,102483.31
2023-04-02T04:47:43.631Z,102484.88
2023-04-02T04:50:21.632Z,102493.03
2023-04-02T04:52:50.028Z,102485.97
2023-04-02T04:55:30.636Z,102489.78
2023-04-02T04:58:05.044Z,102488.09
2023-04-02T05:00:51.050Z,102489.91
2023-04-02T05:03:29.536Z,102489.78
2023-04-02T05:06:05.875Z,102501.50
2023-04-02T05:08:45.559Z,102502.44
2023-04-02T05:11:21.157Z,102510.22
2023-04-02T05:13:53.717Z,102518.94
2023-04-02T05:16:27.280Z,102525.19
2023-04-02T05:19:00.541Z,102526.00
2023-04-02T05:21:36.249Z,102525.03
2023-04-02T05:24:32.314Z,102524.00
2023-04-02T05:27:03.918Z,102530.22
2023-04-02T05:29:38.732Z,102535.34
2023-04-02T05:32:14.351Z,102539.78
2023-04-02T05:34:47.647Z,102532.09
2023-04-02T05:37:21.259Z,102539.91
2023-04-02T05:39:52.640Z,102543.38
2023-04-02T05:42:23.935Z,102546.44
2023-04-02T05:45:06.350Z,102550.78
2023-04-02T05:47:41.136Z,102551.00
2023-04-02T05:50:30.530Z,102554.81
2023-04-02T05:53:08.047Z,102564.38
2023-04-02T05:55:43.141Z,102567.00
2023-04-02T05:58:35.500Z,102567.00
2023-04-02T06:01:17.632Z,102560.78
2023-04-02T06:03:52.814Z,102573.94
2023-04-02T06:06:28.518Z,102578.28
2023-04-02T06:09:03.961Z,102578.16
2023-04-02T06:11:34.261Z,102574.69
2023-04-02T06:14:02.548Z,102579.13
2023-04-02T06:16:33.622Z,102581.84
2023-04-02T06:19:01.904Z,102593.22
2023-04-02T06:21:30.016Z,102602.19
2023-04-02T06:24:04.613Z,102600.25
2023-04-02T06:26:35.476Z,102608.16
2023-04-02T06:29:08.515Z,102608.41
2023-04-02T06:31:42.035Z,102610.06
2023-04-02T06:34:17.214Z,102615.94
2023-04-02T06:36:46.119Z,102616.78
2023-04-02T06:39:20.315Z,102618.69
2023-04-02T06:41:48.548Z,102621.94
2023-04-02T06:44:20.994Z,102619.06
2023-04-02T06:46:52.618Z,102622.31
2023-04-02T06:49:25.568Z,102622.69
2023-04-02T06:51:56.618Z,102633.84
2023-04-02T06:54:26.253Z,102637.31
2023-04-02T06:56:56.447Z,102635.38
2023-04-02T06:59:24.831Z,102638.13
2023-04-02T07:01:57.313Z,102642.44
2023-04-02T07:04:26.228Z,102643.28
2023-04-02T07:06:54.917Z,102643.88
2023-04-02T07:09:23.181Z,102653.25
2023-04-02T07:11:52.694Z,102661.84
2023-04-02T07:14:20.854Z,102656.38
2023-04-02T07:16:49.088Z,102659.00
2023-04-02T07:19:20.545Z,102655.19
2023-04-02T07:21:48.891Z,102662.84
2023-04-02T07:24:17.022Z,102652.19
2023-04-02T07:26:47.669Z,102661.78
2023-04-02T07:29:17.985Z,102664.41
2023-04-02T07:31:46.475Z,102671.00
2023-04-02T07:34:14.824Z,102673.28
2023-04-02T07:36:43.011Z,102677.50
2023-04-02T07:39:11.328Z,102684.06
2023-04-02T07:41:52.794Z,102679.03
2023-04-02T07:44:22.620Z,102680.59
2023-04-02T07:46:50.838Z,102684.69
2023-04-02T07:49:19.065Z,102680.03
2023-04-02T07:51:47.517Z,102685.88
2023-04-02T07:54:15.675Z,102691.66
2023-04-02T07:56:43.905Z,102693.59
2023-04-02T07:59:11.959Z,102693.16
2023-04-02T08:01:43.095Z,102699.59
2023-04-02T08:04:19.899Z,102697.44
2023-04-02T08:06:49.147Z,102708.47
2023-04-02T08:09:18.190Z,102706.78
2023-04-02T08:11:46.753Z,102709.69
2023-04-02T08:14:14.972Z,102713.75
2023-04-02T08:16:49.907Z,102704.41
2023-04-02T08:19:18.755Z,102702.97
2023-04-02T08:21:50.695Z,102709.91
2023-04-02T08:24:19.425Z,102716.16
2023-04-02T08:26:48.031Z,102719.84
2023-04-02T08:29:16.361Z,102725.97
2023-04-02T08:31:44.877Z,102715.41
2023-04-02T08:34:14.504Z,102706.56
2023-04-02T08:36:46.362Z,102699.59
2023-04-02T08:39:14.935Z,102694.91
2023-04-02T08:41:48.505Z,102693.59
2023-04-02T08:44:32.426Z,102694.78
2023-04-02T08:47:04.672Z,102694.28
2023-04-02T08:49:40.528Z,102699.19
2023-04-02T08:52:22.623Z,102708.31
2023-04-02T08:54:51.524Z,102706.72
2023-04-02T08:57:28.092Z,102713.19
2023-04-02T09:00:03.037Z,102719.16
2023-04-02T09:02:36.841Z,102723.16
2023-04-02T09:05:09.491Z,102722.72
2023-04-02T09:07:37.838Z,102721.75
2023-04-02T09:10:07.429Z,102728.47
2023-04-02T09:12:36.813Z,102734.38
2023-04-02T09:15:20.795Z,102734.81
2023-04-02T09:17:54.141Z,102733.38
2023-04-02T09:20:27.771Z,102736.22
2023-04-02T09:22:58.961Z,102738.91
2023-04-02T09:25:31.424Z,102747.84
2023-04-02T09:28:04.283Z,102746.38
2023-04-02T09:30:45.823Z,102756.50
2023-04-02T09:33:14.083Z,102758.63
2023-04-02T09:35:57.776Z,102749.03
2023-04-02T09:38:30.857Z,102755.38
2023-04-02T09:41:02.227Z,102761.78
2023-04-02T09:43:31.986Z,102767.78
2023-04-02T09:46:02.296Z,102771.84
2023-04-02T09:48:32.949Z,102777.84
2023-04-02T09:51:14.807Z,102787.09
2023-04-02T09:53:44.931Z,102788.69
2023-04-02T09:56:16.655Z,102792.41
2023-04-02T09:58:46.867Z,102796.16
2023-04-02T10:01:29.636Z,102799.69
2023-04-02T10:03:59.838Z,102799.31
2023-04-02T10:06:30.787Z,102806.28
2023-04-02T10:08:59.370Z,102807.69
2023-04-02T10:11:43.795Z,102795.31
2023-04-02T10:14:22.956Z,102805.06
2023-04-02T10:16:53.334Z,102807.69
2023-04-02T10:19:30.064Z,102813.28
2023-04-02T10:22:02.092Z,102809.19
2023-04-02T10:24:30.399Z,102808.22
2023-04-02T10:27:10.023Z,102810.47
2023-04-02T10:30:02.459Z,102811.69
2023-04-02T10:32:36.155Z,102821.28
2023-04-02T10:35:11.515Z,102822.97
2023-04-02T10:38:07.324Z,102826.44
2023-04-02T10:40:38.096Z,102833.16
2023-04-02T10:43:35.837Z,102826.38
2023-04-02T10:46:09.483Z,102833.38
2023-04-02T10:48:46.931Z,102835.28
2023-04-02T10:51:26.570Z,102840.69
2023-04-02T10:54:03.878Z,102840.69
2023-04-02T10:56:44.065Z,102844.09
2023-04-02T10:59:21.089Z,102849.31
2023-04-02T11:01:52.173Z,102853.19
2023-04-02T11:04:26.380Z,102857.25
2023-04-02T11:07:11.310Z,102861.72
2023-04-02T11:09:46.877Z,102864.63
2023-04-02T11:12:22.881Z,102858.50
2023-04-02T11:14:52.253Z,102856.56
2023-04-02T11:17:21.112Z,102857.03
2023-04-02T11:19:49.614Z,102861.34
2023-04-02T11:22:19.781Z,102855.56
2023-04-02T11:24:51.277Z,102852.09
2023-04-02T11:27:24.108Z,102858.69
2023-04-02T11:29:58.607Z,102860.59
2023-04-02T11:32:31.741Z,102858.09
2023-04-02T11:35:36.739Z,102862.84
2023-04-02T11:38:52.905Z,102856.50
2023-04-02T11:41:54.295Z,102866.69
2023-04-02T11:44:26.875Z,102857.69
2023-04-02T11:47:19.259Z,102862.09
2023-04-02T11:50:04.000Z,102861.72
2023-04-02T11:52:35.620Z,102867.47
2023-04-02T11:55:24.454Z,102862.38
2023-04-02T11:58:32.296Z,102866.75
2023-04-02T12:01:31.818Z,102867.41
2023-04-02T12:04:20.862Z,102876.06
2023-04-02T12:07:01.701Z,102873.41
2023-04-02T12:09:32.998Z,102877.41
2023-04-02T12:12:03.343Z,102882.34
2023-04-02T12:14:46.918Z,102890.88
2023-04-02T12:17:27.166Z,102891.22
2023-04-02T12:19:58.552Z,102895.75
2023-04-02T12:22:30.366Z,102891.28
2023-04-02T12:25:02.082Z,102886.50
2023-04-02T12:27:31.326Z,102894.66
2023-04-02T12:30:14.631Z,102895.44
2023-04-02T12:32:46.594Z,102900.00
2023-04-02T12:35:30.104Z,102912.81
2023-04-02T12:37:58.581Z,102904.50
2023-04-02T12:40:27.359Z,102911.31
2023-04-02T12:42:56.102Z,102909.47
2023-04-02T12:45:29.150Z,102910.34
2023-04-02T12:48:01.996Z,102926.00
2023-04-02T12:50:30.527Z,102927.31
2023-04-02T12:53:01.008Z,102925.81
2023-04-02T12:55:29.282Z,102925.56
2023-04-02T12:57:58.228Z,102921.94
2023-04-02T13:00:36.043Z,102934.22
2023-04-02T13:03:19.348Z,102940.66
2023-04-02T13:05:52.588Z,102940.38
2023-04-02T13:08:24.254Z,102947.63
2023-04-02T13:10:56.801Z,102953.81
2023-04-02T13:13:30.346Z,102955.91
2023-04-02T13:16:04.160Z,102960.66
2023-04-02T13:18:34.683Z,102967.47
2023-04-02T13:21:04.182Z,102968.88
2023-04-02T13:23:37.796Z,102964.41
2023-04-02T13:26:16.452Z,102970.13
2023-04-02T13:28:56.296Z,102962.75
2023-04-02T13:31:25.141Z,102967.34
2023-04-02T13:33:54.914Z,102955.03
2023-04-02T13:36:23.149Z,102956.88
2023-04-02T13:38:51.306Z,102959.50
2023-04-02T13:41:23.656Z,102960.66
2023-04-02T13:43:52.202Z,102965.09
2023-04-02T13:46:23.832Z,102952.72
2023-04-02T13:48:55.425Z,102960.50
2023-04-02T13:51:28.526Z,102963.00
2023-04-02T13:53:59.261Z,102956.59
2023-04-02T13:56:27.390Z,102963.56
2023-04-02T13:58:55.607Z,102958.94
2023-04-02T14:01:25.481Z,102955.84
2023-04-02T14:03:58.209Z,102962.13
2023-04-02T14:06:39.222Z,102969.09
2023-04-02T14:09:19.721Z,102972.19
2023-04-02T14:11:57.449Z,102966.31
2023-04-02T14:14:48.249Z,102976.63
2023-04-02T14:17:31.894Z,102974.13
2023-04-02T14:20:27.135Z,102983.91
2023-04-02T14:23:15.691Z,102981.94
2023-04-02T14:25:48.922Z,102988.31
2023-04-02T14:28:27.094Z,102991.53
2023-04-02T14:31:04.538Z,102981.63
2023-04-02T14:33:43.491Z,102978.50
2023-04-02T14:36:18.348Z,102976.16
2023-04-02T14:38:56.294Z,102973.31
2023-04-02T14:41:31.932Z,102980.16
2023-04-02T14:44:04.046Z,102983.59
2023-04-02T14:46:36.885Z,102999.78
2023-04-02T14:49:17.006Z,102993.63
2023-04-02T14:51:51.030Z,102999.16
2023-04-02T14:54:29.437Z,102994.94
2023-04-02T14:57:01.922Z,102994.13
2023-04-02T14:59:34.068Z,102988.19
2023-04-02T15:02:09.077Z,102981.47
2023-04-02T15:04:42.578Z,102980.34
2023-04-02T15:07:20.458Z,102987.94
2023-04-02T15:09:54.819Z,102991.25
2023-04-02T15:12:26.832Z,102994.81
2023-04-02T15:14:59.847Z,102992.03
2023-04-02T15:17:28.265Z,102985.00
2023-04-02T15:20:10.502Z,102990.66
2023-04-02T15:22:50.661Z,102991.13
2023-04-02T15:25:29.028Z,102988.31
2023-04-02T15:28:08.775Z,102994.16
2023-04-02T15:30:39.250Z,102990.81
2023-04-02T15:33:40.046Z,102983.75
2023-04-02T15:36:36.336Z,102970.91
2023-04-02T15:39:24.826Z,102968.13
2023-04-02T15:42:04.179Z,102972.50
2023-04-02T15:44:33.164Z,102972.03
2023-04-02T15:47:11.277Z,102968.78
2023-04-02T15:49:44.152Z,102976.34
2023-04-02T15:52:18.274Z,102969.50
2023-04-02T15:55:11.801Z,102961.97
2023-04-02T15:58:02.456Z,102958.63
2023-04-02T16:00:32.006Z,102953.81
2023-04-02T16:03:23.125Z,102953.47
2023-04-02T16:06:10.831Z,102956.03
2023-04-02T16:08:57.415Z,102950.88
2023-04-02T16:11:27.838Z,102940.88
2023-04-02T16:14:02.305Z,102942.31
2023-04-02T16:16:34.051Z,102952.88
2023-04-02T16:19:15.695Z,102950.88
2023-04-02T16:21:50.329Z,102950.69
2023-04-02T16:24:18.490Z,102950.69
2023-04-02T16:26:58.555Z,102948.34
2023-04-02T16:30:00.474Z,102945.91
2023-04-02T16:32:37.297Z,102956.50
2023-04-02T16:35:40.737Z,102950.00
2023-04-02T16:38:16.758Z,102946.53
2023-04-02T16:41:04.676Z,102945.56
2023-04-02T16:43:46.222Z,102937.88
2023-04-02T16:46:36.335Z,102950.97
2023-04-02T16:49:18.351Z,102936.56
2023-04-02T16:51:56.855Z,102937.50
2023-04-02T16:54:31.659Z,102938.13
2023-04-02T16:57:18.566Z,102945.69
2023-04-02T16:59:58.463Z,102927.44
2023-04-02T17:02:42.342Z,102936.94
2023-04-02T17:05:20.490Z,102932.50
2023-04-02T17:08:01.815Z,102933.06
2023-04-02T17:10:32.660Z,102927.44
2023-04-02T17:13:11.009Z,102926.47
2023-04-02T17:15:42.385Z,102927.81
2023-04-02T17:18:18.647Z,102925.25
2023-04-02T17:20:47.478Z,102923.22
2023-04-02T17:23:17.616Z,102922.88
2023-04-02T17:27:11.039Z,102917.34
2023-04-02T17:29:42.169Z,102911.31
2023-04-02T17:32:21.272Z,102912.06
2023-04-02T17:34:49.716Z,102921.25
2023-04-02T17:37:30.511Z,102921.50
2023-04-02T17:40:08.402Z,102914.66
2023-04-02T17:42:49.072Z,102927.22
2023-04-02T17:45:23.743Z,102931.13
2023-04-02T17:48:03.219Z,102924.69
2023-04-02T17:50:49.535Z,102921.09
2023-04-02T17:53:33.540Z,102930.41
2023-04-02T17:56:17.568Z,102934.63
2023-04-02T17:59:00.847Z,102929.19
2023-04-02T18:01:32.537Z,102932.78
2023-04-02T18:04:16.855Z,102928.44
2023-04-02T18:06:51.698Z,102925.81
2023-04-02T18:09:34.902Z,102933.56
2023-04-02T18:12:15.178Z,102934.31
2023-04-02T18:15:01.950Z,102923.25
2023-04-02T18:17:42.175Z,102934.84
2023-04-02T18:20:23.272Z,102933.19
2023-04-02T18:22:57.982Z,102923.53
2023-04-02T18:25:35.901Z,102928.47
2023-04-02T18:28:20.379Z,102929.75
2023-04-02T18:30:55.055Z,102932.53
2023-04-02T18:33:38.281Z,102929.59
2023-04-02T18:36:17.526Z,102921.94
2023-04-02T18:38:49.068Z,102917.72
2023-04-02T18:41:27.186Z,102914.34
2023-04-02T18:44:10.299Z,102919.94
2023-04-02T18:46:45.152Z,102916.41
2023-04-02T18:49:24.852Z,102915.41
2023-04-02T18:51:58.547Z,102910.38
2023-04-02T18:54:32.168Z,102910.88
2023-04-02T18:57:02.575Z,102905.94
2023-04-02T18:59:36.309Z,102902.19
2023-04-02T19:02:23.578Z,102898.41
2023-04-02T19:04:59.275Z,102905.47
2023-04-02T19:07:31.074Z,102903.50
2023-04-02T19:10:03.272Z,102914.00
2023-04-02T19:12:34.001Z,102910.03
2023-04-02T19:15:02.202Z,102918.00
2023-04-02T19:17:36.591Z,102917.09
2023-04-02T19:20:15.195Z,102914.88
2023-04-02T19:22:54.902Z,102917.41
2023-04-02T19:25:43.210Z,102914.25
2023-04-02T19:28:18.776Z,102920.13
2023-04-02T19:31:12.222Z,102923.72
2023-04-02T19:33:49.872Z,102920.97
2023-04-02T19:36:45.038Z,102917.50
2023-04-02T19:39:36.720Z,102913.50
2023-04-02T19:42:08.085Z,102921.41
2023-04-02T19:44:37.239Z,102914.34
2023-04-02T19:47:05.577Z,102920.78
2023-04-02T19:49:35.985Z,102911.31
2023-04-02T19:52:04.238Z,102923.94
2023-04-02T19:54:34.146Z,102929.22
2023-04-02T19:57:04.792Z,102927.31
2023-04-02T19:59:33.529Z,102919.94
2023-04-02T20:02:05.973Z,102912.88
2023-04-02T20:04:34.193Z,102917.28
2023-04-02T20:07:02.423Z,102910.47
2023-04-02T20:09:31.207Z,102922.56
2023-04-02T20:12:00.792Z,102915.75
2023-04-02T20:14:28.973Z,102914.91
2023-04-02T20:16:57.219Z,102914.47
2023-04-02T20:19:25.367Z,102918.78
2023-04-02T20:21:53.531Z,102906.56
2023-04-02T20:24:21.656Z,102911.00
2023-04-02T20:26:50.040Z,102912.16
2023-04-02T20:29:19.672Z,102911.44
2023-04-02T20:31:47.762Z,102909.53
2023-04-02T20:34:16.352Z,102913.22
2023-04-02T20:36:45.691Z,102920.28
2023-04-02T20:39:19.402Z,102924.59
2023-04-02T20:41:47.755Z,102923.75
2023-04-02T20:44:15.953Z,102913.44
2023-04-02T20:46:45.581Z,102920.91
2023-04-02T20:49:13.717Z,102916.56
2023-04-02T20:51:41.776Z,102915.53
2023-04-02T20:54:09.950Z,102918.03
2023-04-02T20:56:38.256Z,102918.88
2023-04-02T20:59:06.693Z,102926.06
2023-04-02T21:01:34.840Z,102923.72
2023-04-02T21:04:05.571Z,102921.22
2023-04-02T21:06:35.198Z,102920.47
2023-04-02T21:09:06.982Z,102921.63
2023-04-02T21:11:37.350Z,102922.88
2023-04-02T21:14:05.781Z,102918.56
2023-04-02T21:16:34.359Z,102919.59
2023-04-02T21:19:06.203Z,102919.53
2023-04-02T21:21:35.366Z,102932.75
2023-04-02T21:24:05.589Z,102932.75
2023-04-02T21:26:35.861Z,102936.25
2023-04-02T21:29:05.145Z,102931.06
2023-04-02T21:31:36.854Z,102931.06
2023-04-02T21:34:08.217Z,102925.81
2023-04-02T21:36:37.991Z,102925.28
2023-04-02T21:39:08.003Z,102920.03
2023-04-02T21:41:37.780Z,102919.84
2023-04-02T21:44:07.628Z,102923.41
2023-04-02T21:46:38.718Z,102919.91
2023-04-02T21:49:09.047Z,102918.03
2023-04-02T21:51:39.033Z,102921.50
2023-04-02T21:54:08.069Z,102918.69
2023-04-02T21:56:37.987Z,102921.19
2023-04-02T21:59:07.890Z,102923.00
2023-04-02T22:01:37.343Z,102923.00
2023-04-02T22:04:07.733Z,102914.34
2023-04-02T22:06:40.804Z,102918.88
2023-04-02T22:09:11.409Z,102914.47
2023-04-02T22:11:42.078Z,102914.56
2023-04-02T22:14:10.837Z,102915.28
2023-04-02T22:16:40.037Z,102914.47
2023-04-02T22:19:10.200Z,102914.66
2023-04-02T22:21:39.985Z,102915.72
2023-04-02T22:24:10.529Z,102905.41
2023-04-02T22:26:40.450Z,102906.47
2023-04-02T22:29:08.965Z,102911.09
2023-04-02T22:31:37.570Z,102905.09
2023-04-02T22:34:07.326Z,102908.34
2023-04-02T22:36:35.913Z,102906.44
2023-04-02T22:39:09.891Z,102902.97
2023-04-02T22:41:38.523Z,102897.59
2023-04-02T22:44:07.009Z,102904.34
2023-04-02T22:46:36.134Z,102901.19
2023-04-02T22:49:04.659Z,102901.19
2023-04-02T22:51:32.859Z,102892.25
2023-04-02T22:54:00.959Z,102889.00
2023-04-02T22:56:32.985Z,102896.75
2023-04-02T22:59:01.238Z,102893.19
2023-04-02T23:01:33.140Z,102888.75
2023-04-02T23:04:01.543Z,102888.75
2023-04-02T23:06:30.260Z,102893.94
2023-04-02T23:08:58.446Z,102888.75
2023-04-02T23:11:28.783Z,102890.47
2023-04-02T23:13:59.596Z,102888.75
2023-04-02T23:16:29.781Z,102892.34
2023-04-02T23:18:59.208Z,102891.38
2023-04-02T23:21:28.103Z,102899.28
2023-04-02T23:23:56.509Z,102894.97
2023-04-02T23:26:27.674Z,102889.72
2023-04-02T23:28:56.109Z,102885.28
2023-04-02T23:31:26.024Z,102896.22
2023-04-02T23:33:54.247Z,102894.44
2023-04-02T23:36:24.832Z,102886.44
2023-04-02T23:38:55.481Z,102891.94
2023-04-02T23:41:27.203Z,102884.22
2023-04-02T23:43:55.212Z,102879.09
2023-04-02T23:46:24.089Z,102875.72
2023-04-02T23:48:54.385Z,102878.25
2023-04-02T23:51:23.257Z,102877.50
2023-04-02T23:53:51.904Z,102868.88
2023-04-02T23:56:20.953Z,102863.00
2023-04-02T23:58:49.738Z,102858.50
